createdAt,value
2024-01-18T00:00:40.324Z,17.10
2024-01-18T00:03:42.951Z,17.50
2024-01-18T00:06:45.393Z,16.88
2024-01-18T00:09:49.018Z,17.88
2024-01-18T00:12:51.409Z,18.27
2024-01-18T00:15:53.761Z,16.45
2024-01-18T00:18:57.194Z,17.63
2024-01-18T00:22:00.312Z,16.30
2024-01-18T00:25:04.426Z,18.05
2024-01-18T00:28:06.890Z,17.83
2024-01-18T00:31:09.224Z,17.25
2024-01-18T00:34:11.488Z,16.25
2024-01-18T00:37:17.604Z,17.08
2024-01-18T00:40:21.232Z,15.52
2024-01-18T00:43:23.543Z,16.48
2024-01-18T00:46:25.846Z,17.77
2024-01-18T00:49:31.085Z,17.38
2024-01-18T00:52:33.425Z,16.40
2024-01-18T00:55:37.210Z,17.42
2024-01-18T00:58:41.875Z,17.75
2024-01-18T01:01:44.264Z,16.40
2024-01-18T01:04:46.721Z,16.52
2024-01-18T01:07:49.141Z,16.17
2024-01-18T01:10:52.736Z,15.95
2024-01-18T01:13:54.969Z,15.13
2024-01-18T01:16:57.280Z,17.17
2024-01-18T01:20:01.768Z,16.38
2024-01-18T01:23:05.767Z,16.27
2024-01-18T01:26:12.240Z,14.85
2024-01-18T01:29:16.058Z,15.63
2024-01-18T01:32:18.286Z,16.27
2024-01-18T01:35:20.542Z,17.00
2024-01-18T01:38:22.778Z,16.13
2024-01-18T01:41:26.346Z,16.38
2024-01-18T01:44:28.625Z,18.02
2024-01-18T01:47:31.036Z,18.17
2024-01-18T01:50:34.545Z,15.98
2024-01-18T01:53:36.894Z,17.23
2024-01-18T01:56:40.620Z,16.70
2024-01-18T01:59:42.885Z,16.13
2024-01-18T02:02:45.948Z,15.82
2024-01-18T02:05:48.191Z,15.98
2024-01-18T02:08:50.443Z,16.38
2024-01-18T02:11:54.121Z,17.33
2024-01-18T02:14:56.635Z,17.55
2024-01-18T02:17:59.132Z,16.17
2024-01-18T02:21:01.449Z,16.52
2024-01-18T02:24:11.181Z,15.65
2024-01-18T02:27:14.962Z,16.70
2024-01-18T02:30:17.336Z,16.35
2024-01-18T02:33:19.879Z,15.75
2024-01-18T02:36:22.553Z,15.27
2024-01-18T02:39:25.396Z,17.00
2024-01-18T02:42:29.150Z,15.85
2024-01-18T02:45:31.515Z,16.80
2024-01-18T02:48:33.969Z,16.63
2024-01-18T02:51:36.375Z,17.95
2024-01-18T02:54:41.562Z,17.13
2024-01-18T02:57:45.376Z,16.58
2024-01-18T03:00:48.620Z,16.70
2024-01-18T03:03:51.138Z,16.63
2024-01-18T03:06:53.550Z,17.08
2024-01-18T03:09:55.886Z,17.92
2024-01-18T03:12:59.441Z,16.38
2024-01-18T03:16:01.908Z,16.55
2024-01-18T03:19:04.175Z,16.23
2024-01-18T03:22:06.513Z,16.42
2024-01-18T03:25:09.432Z,16.77
2024-01-18T03:28:13.079Z,16.63
2024-01-18T03:31:15.408Z,16.80
2024-01-18T03:34:17.920Z,16.50
2024-01-18T03:37:20.222Z,16.10
2024-01-18T03:40:23.188Z,17.67
2024-01-18T03:43:26.823Z,16.35
2024-01-18T03:46:29.115Z,16.48
2024-01-18T03:49:31.548Z,17.10
2024-01-18T03:52:33.895Z,17.27
2024-01-18T03:55:36.262Z,17.60
2024-01-18T03:58:40.597Z,16.67
2024-01-18T04:01:44.316Z,19.20
2024-01-18T04:04:46.702Z,18.50
2024-01-18T04:07:48.960Z,19.30
2024-01-18T04:10:52.086Z,18.77
2024-01-18T04:13:55.633Z,18.15
2024-01-18T04:16:58.009Z,19.00
2024-01-18T04:20:00.689Z,18.60
2024-01-18T04:23:03.050Z,19.50
2024-01-18T04:26:05.326Z,20.23
2024-01-18T04:29:08.955Z,18.90
2024-01-18T04:32:11.293Z,18.02
2024-01-18T04:35:13.817Z,19.55
2024-01-18T04:38:16.113Z,19.42
2024-01-18T04:41:18.459Z,18.33
2024-01-18T04:44:21.988Z,19.45
2024-01-18T04:47:24.409Z,20.92
2024-01-18T04:50:27.206Z,18.90
2024-01-18T04:53:29.424Z,20.67
2024-01-18T04:56:36.749Z,21.10
2024-01-18T04:59:40.714Z,21.50
2024-01-18T05:02:43.072Z,22.00
2024-01-18T05:05:45.740Z,21.83
2024-01-18T05:08:48.514Z,21.83
2024-01-18T05:11:52.950Z,21.70
2024-01-18T05:14:57.430Z,22.30
2024-01-18T05:18:01.819Z,21.80
2024-01-18T05:21:04.891Z,20.83
2024-01-18T05:24:07.348Z,22.83
2024-01-18T05:27:10.291Z,21.65
2024-01-18T05:30:14.831Z,21.98
2024-01-18T05:33:17.182Z,22.77
2024-01-18T05:36:19.552Z,20.92
2024-01-18T05:39:21.952Z,23.20
2024-01-18T05:42:24.723Z,23.10
2024-01-18T05:45:28.437Z,23.35
2024-01-18T05:48:30.766Z,23.95
2024-01-18T05:51:33.182Z,24.25
2024-01-18T05:54:35.726Z,22.40
2024-01-18T05:57:40.901Z,21.95
2024-01-18T06:00:44.736Z,22.45
2024-01-18T06:03:47.369Z,22.10
2024-01-18T06:06:51.188Z,23.63
2024-01-18T06:09:53.541Z,24.65
2024-01-18T06:12:55.726Z,23.67
2024-01-18T06:15:59.960Z,23.35
2024-01-18T06:19:02.300Z,24.20
2024-01-18T06:22:04.800Z,22.73
2024-01-18T06:25:07.776Z,24.20
2024-01-18T06:28:11.827Z,23.60
2024-01-18T06:31:15.746Z,23.63
2024-01-18T06:34:18.921Z,25.45
2024-01-18T06:37:21.389Z,24.88
2024-01-18T06:40:23.932Z,25.25
2024-01-18T06:43:26.489Z,23.25
2024-01-18T06:46:30.842Z,23.30
2024-01-18T06:49:33.331Z,23.63
2024-01-18T06:52:35.704Z,23.90
2024-01-18T06:55:41.544Z,25.17
2024-01-18T06:58:45.269Z,24.48
2024-01-18T07:01:49.036Z,23.38
2024-01-18T07:04:51.478Z,24.13
2024-01-18T07:07:53.990Z,24.23
2024-01-18T07:10:56.647Z,24.35
2024-01-18T07:13:58.978Z,25.35
2024-01-18T07:17:02.930Z,21.92
2024-01-18T07:20:08.131Z,24.33
2024-01-18T07:23:10.414Z,22.90
2024-01-18T07:26:14.980Z,20.77
2024-01-18T07:29:20.116Z,22.63
2024-01-18T07:32:24.520Z,23.50
2024-01-18T07:35:27.180Z,22.08
2024-01-18T07:38:29.909Z,23.90
2024-01-18T07:41:32.326Z,21.65
2024-01-18T07:44:40.763Z,22.60
2024-01-18T07:47:47.375Z,22.88
2024-01-18T07:50:49.936Z,25.48
2024-01-18T07:53:52.573Z,21.38
2024-01-18T07:56:56.360Z,23.00
2024-01-18T07:59:58.679Z,23.25
2024-01-18T08:03:04.260Z,22.75
2024-01-18T08:06:08.035Z,22.60
2024-01-18T08:09:13.938Z,22.05
2024-01-18T08:12:16.602Z,22.48
2024-01-18T08:15:19.455Z,22.65
2024-01-18T08:18:23.237Z,23.33
2024-01-18T08:21:25.759Z,22.95
2024-01-18T08:24:27.973Z,23.75
2024-01-18T08:27:30.550Z,22.38
2024-01-18T08:30:33.049Z,22.88
2024-01-18T08:33:36.946Z,22.58
2024-01-18T08:36:39.625Z,24.10
2024-01-18T08:39:42.206Z,23.17
2024-01-18T08:42:47.038Z,22.67
2024-01-18T08:45:49.766Z,22.90
2024-01-18T08:48:56.338Z,20.67
2024-01-18T08:51:58.807Z,23.73
2024-01-18T08:55:01.187Z,22.58
2024-01-18T08:58:04.013Z,23.00
2024-01-18T09:01:06.586Z,22.52
2024-01-18T09:04:10.541Z,21.75
2024-01-18T09:07:13.024Z,21.02
2024-01-18T09:10:17.706Z,19.77
2024-01-18T09:13:21.874Z,19.60
2024-01-18T09:16:24.255Z,20.40
2024-01-18T09:19:28.109Z,19.15
2024-01-18T09:22:32.726Z,19.17
2024-01-18T09:25:35.116Z,19.27
2024-01-18T09:28:42.056Z,19.40
2024-01-18T09:31:44.456Z,18.08
2024-01-18T09:34:49.424Z,19.15
2024-01-18T09:37:52.214Z,18.80
2024-01-18T09:40:59.959Z,18.55
2024-01-18T09:44:13.230Z,18.25
2024-01-18T09:47:21.823Z,18.40
2024-01-18T09:50:28.179Z,17.90
2024-01-18T09:53:30.641Z,17.77
2024-01-18T09:56:37.170Z,17.73
2024-01-18T09:59:43.715Z,19.38
2024-01-18T10:03:07.184Z,17.33
2024-01-18T10:06:20.950Z,18.50
2024-01-18T10:09:23.512Z,18.05
2024-01-18T10:12:30.311Z,18.20
2024-01-18T10:15:36.866Z,18.10
2024-01-18T10:18:39.328Z,17.13
2024-01-18T10:21:43.153Z,18.33
2024-01-18T10:24:49.139Z,17.63
2024-01-18T10:27:52.806Z,16.30
2024-01-18T10:30:55.298Z,18.48
2024-01-18T10:33:57.992Z,17.65
2024-01-18T10:37:01.781Z,17.30
2024-01-18T10:40:05.677Z,17.80
2024-01-18T10:43:09.595Z,19.48
2024-01-18T10:46:12.387Z,19.20
2024-01-18T10:49:15.384Z,18.88
2024-01-18T10:52:22.285Z,18.30
2024-01-18T10:55:24.884Z,18.25
2024-01-18T10:58:29.549Z,17.58
2024-01-18T11:01:32.403Z,19.58
2024-01-18T11:04:35.079Z,19.65
2024-01-18T11:07:39.391Z,20.55
2024-01-18T11:10:42.422Z,19.50
2024-01-18T11:13:44.988Z,20.20
2024-01-18T11:16:47.283Z,20.17
2024-01-18T11:19:51.222Z,19.45
2024-01-18T11:22:59.819Z,19.00
2024-01-18T11:26:02.715Z,19.45
2024-01-18T11:29:18.917Z,19.27
2024-01-18T11:32:21.941Z,19.42
2024-01-18T11:35:25.154Z,20.08
2024-01-18T11:38:35.162Z,18.63
2024-01-18T11:41:37.813Z,18.45
2024-01-18T11:44:49.835Z,18.48
2024-01-18T11:50:54.453Z,17.00
2024-01-18T11:53:59.735Z,17.35
2024-01-18T11:57:03.749Z,17.15
2024-01-18T12:00:09.665Z,17.08
2024-01-18T12:03:14.746Z,17.63
2024-01-18T12:06:18.188Z,18.20
2024-01-18T12:09:23.950Z,17.02
2024-01-18T12:12:26.328Z,17.48
2024-01-18T12:15:29.684Z,15.55
2024-01-18T12:18:39.466Z,13.95
2024-01-18T12:21:44.700Z,15.75
2024-01-18T12:24:52.898Z,14.35
2024-01-18T12:27:55.273Z,13.05
2024-01-18T12:31:02.674Z,12.65
2024-01-18T12:34:05.455Z,13.68
2024-01-18T12:37:13.683Z,12.68
2024-01-18T12:40:26.676Z,12.38
2024-01-18T12:43:28.969Z,12.82
2024-01-18T12:46:31.697Z,14.07
2024-01-18T12:49:35.028Z,13.60
2024-01-18T12:52:38.011Z,13.60
2024-01-18T12:55:42.115Z,17.45
2024-01-18T12:58:46.174Z,21.05
2024-01-18T13:01:50.190Z,20.65
2024-01-18T13:04:54.421Z,18.63
2024-01-18T13:07:57.109Z,17.25
2024-01-18T13:11:04.603Z,13.38
2024-01-18T13:14:07.986Z,11.23
2024-01-18T13:17:16.874Z,11.57
2024-01-18T13:20:19.384Z,10.55
2024-01-18T13:23:21.861Z,10.80
2024-01-18T13:26:25.767Z,10.25
2024-01-18T13:29:28.343Z,10.57
2024-01-18T13:32:40.118Z,10.95
2024-01-18T13:35:42.493Z,11.18
2024-01-18T13:38:44.880Z,10.93
2024-01-18T13:41:48.973Z,10.52
2024-01-18T13:44:51.204Z,10.43
2024-01-18T13:47:53.505Z,10.52
2024-01-18T13:50:58.890Z,11.65
2024-01-18T13:54:01.334Z,11.07
2024-01-18T13:57:05.184Z,12.32
2024-01-18T14:00:10.687Z,12.93
2024-01-18T14:03:16.303Z,12.57
2024-01-18T14:06:20.897Z,12.40
2024-01-18T14:09:23.615Z,13.57
2024-01-18T14:12:27.275Z,13.68
2024-01-18T14:15:31.318Z,12.38
2024-01-18T14:18:33.936Z,13.95
2024-01-18T14:21:36.565Z,13.05
2024-01-18T14:24:39.048Z,15.40
2024-01-18T14:27:43.297Z,12.23
2024-01-18T14:30:45.823Z,15.05
2024-01-18T14:33:48.825Z,14.20
2024-01-18T14:36:53.053Z,13.95
2024-01-18T14:39:55.520Z,13.18
2024-01-18T14:43:02.285Z,14.10
2024-01-18T14:46:05.321Z,13.00
2024-01-18T14:49:08.312Z,13.75
2024-01-18T14:52:12.004Z,14.27
2024-01-18T14:55:16.002Z,13.68
2024-01-18T14:58:19.755Z,12.65
2024-01-18T15:01:22.066Z,12.60
2024-01-18T15:04:24.628Z,13.40
2024-01-18T15:07:27.019Z,13.70
2024-01-18T15:10:31.954Z,12.98
2024-01-18T15:13:38.726Z,12.63
2024-01-18T15:16:41.015Z,13.13
2024-01-18T15:19:43.512Z,11.50
2024-01-18T15:22:45.879Z,12.02
2024-01-18T15:25:49.028Z,11.80
2024-01-18T15:28:53.123Z,10.38
2024-01-18T15:31:55.409Z,12.38
2024-01-18T15:34:59.100Z,15.55
2024-01-18T15:38:01.376Z,11.35
2024-01-18T15:41:04.348Z,11.52
2024-01-18T15:44:08.109Z,11.02
2024-01-18T15:47:14.862Z,12.00
2024-01-18T15:50:18.771Z,10.80
2024-01-18T15:53:21.462Z,11.55
2024-01-18T15:56:24.053Z,11.98
2024-01-18T15:59:27.633Z,12.98
2024-01-18T16:02:31.481Z,11.70
2024-01-18T16:05:33.812Z,13.23
2024-01-18T16:08:36.668Z,12.88
2024-01-18T16:11:38.953Z,12.25
2024-01-18T16:14:47.430Z,11.45
2024-01-18T16:17:49.911Z,12.07
2024-01-18T16:20:52.603Z,13.45
2024-01-18T16:23:56.552Z,12.90
2024-01-18T16:27:00.031Z,13.13
2024-01-18T16:30:09.609Z,13.73
2024-01-18T16:33:19.357Z,12.90
2024-01-18T16:36:22.653Z,12.05
2024-01-18T16:39:26.021Z,12.88
2024-01-18T16:42:28.410Z,13.43
2024-01-18T16:45:34.405Z,14.07
2024-01-18T16:48:37.058Z,15.25
2024-01-18T16:51:39.560Z,13.85
2024-01-18T16:54:44.156Z,14.68
2024-01-18T17:00:52.220Z,14.43
2024-01-18T17:03:54.642Z,14.32
2024-01-18T17:06:57.218Z,13.60
2024-01-18T17:10:01.987Z,14.57
2024-01-18T17:13:04.988Z,14.90
2024-01-18T17:16:08.733Z,16.20
2024-01-18T17:19:11.010Z,14.85
2024-01-18T17:22:13.433Z,15.77
2024-01-18T17:25:15.824Z,14.82
2024-01-18T17:28:18.163Z,16.67
2024-01-18T17:31:23.234Z,16.10
2024-01-18T17:34:25.661Z,16.23
2024-01-18T17:37:27.957Z,14.45
2024-01-18T17:40:30.272Z,15.80
2024-01-18T17:43:32.510Z,14.07
2024-01-18T17:46:44.366Z,14.20
2024-01-18T17:49:48.349Z,14.85
2024-01-18T17:52:53.075Z,15.45
2024-01-18T17:55:59.404Z,15.00
2024-01-18T17:59:02.199Z,16.02
2024-01-18T18:02:10.039Z,15.70
2024-01-18T18:05:12.998Z,13.93
2024-01-18T18:08:18.052Z,14.45
2024-01-18T18:11:20.467Z,15.27
2024-01-18T18:14:22.828Z,14.95
2024-01-18T18:17:26.624Z,16.23
2024-01-18T18:20:30.429Z,15.70
2024-01-18T18:23:35.577Z,14.63
2024-01-18T18:26:37.961Z,15.80
2024-01-18T18:29:40.362Z,16.35
2024-01-18T18:32:44.097Z,15.68
2024-01-18T18:35:46.515Z,16.67
2024-01-18T18:38:49.143Z,15.30
2024-01-18T18:41:51.679Z,16.15
2024-01-18T18:44:53.942Z,15.55
2024-01-18T18:47:57.597Z,18.25
2024-01-18T18:51:00.899Z,16.33
2024-01-18T18:54:03.427Z,14.55
2024-01-18T18:57:05.948Z,16.45
2024-01-18T19:00:09.070Z,15.23
2024-01-18T19:03:12.695Z,15.27
2024-01-18T19:06:18.247Z,16.30
2024-01-18T19:09:20.523Z,16.40
2024-01-18T19:12:22.759Z,15.48
2024-01-18T19:15:25.075Z,16.70
2024-01-18T19:18:28.980Z,15.98
2024-01-18T19:21:31.429Z,15.98
2024-01-18T19:24:33.731Z,15.32
2024-01-18T19:27:36.116Z,16.30
2024-01-18T19:30:38.530Z,17.52
2024-01-18T19:33:42.275Z,16.38
2024-01-18T19:36:45.224Z,15.30
2024-01-18T19:39:48.388Z,16.90
2024-01-18T19:42:50.608Z,17.55
2024-01-18T19:45:59.967Z,16.60
2024-01-18T19:49:05.834Z,15.90
2024-01-18T19:52:09.294Z,15.52
2024-01-18T19:55:11.728Z,16.58
2024-01-18T19:58:14.267Z,15.98
2024-01-18T20:01:19.670Z,16.23
2024-01-18T20:04:23.261Z,15.88
2024-01-18T20:07:25.658Z,16.70
2024-01-18T20:10:28.705Z,16.02
2024-01-18T20:13:31.008Z,15.70
2024-01-18T20:16:33.309Z,14.98
2024-01-18T20:19:36.989Z,14.70
2024-01-18T20:22:39.470Z,15.77
2024-01-18T20:25:41.951Z,15.10
2024-01-18T20:28:46.893Z,15.02
2024-01-18T20:31:50.170Z,15.40
2024-01-18T20:34:53.797Z,16.40
2024-01-18T20:37:58.385Z,16.40
2024-01-18T20:41:00.857Z,17.35
2024-01-18T20:44:03.138Z,14.95
2024-01-18T20:47:05.668Z,15.50
2024-01-18T20:50:11.963Z,16.50
2024-01-18T20:53:14.319Z,15.48
2024-01-18T20:56:16.866Z,17.45
2024-01-18T20:59:19.253Z,16.83
2024-01-18T21:02:21.587Z,15.98
2024-01-18T21:05:25.611Z,16.10
2024-01-18T21:08:27.915Z,15.35
2024-01-18T21:11:30.437Z,15.38
2024-01-18T21:14:32.800Z,16.00
2024-01-18T21:17:39.048Z,15.88
2024-01-18T21:20:44.168Z,15.88
2024-01-18T21:23:46.599Z,15.35
2024-01-18T21:26:49.311Z,16.23
2024-01-18T21:29:51.690Z,16.48
2024-01-18T21:32:54.055Z,15.80
2024-01-18T21:35:57.679Z,15.43
2024-01-18T21:39:00.234Z,16.17
2024-01-18T21:42:03.790Z,17.77
2024-01-18T21:45:07.255Z,17.23
2024-01-18T21:48:10.047Z,16.35
2024-01-18T21:51:14.940Z,17.10
2024-01-18T21:54:20.152Z,17.58
2024-01-18T21:57:22.814Z,15.57
2024-01-18T22:00:25.302Z,16.13
2024-01-18T22:03:28.384Z,15.48
2024-01-18T22:06:32.342Z,17.95
2024-01-18T22:09:41.584Z,17.67
2024-01-18T22:12:45.132Z,17.92
2024-01-18T22:15:47.476Z,17.65
2024-01-18T22:18:49.995Z,18.45
2024-01-18T22:21:53.605Z,18.25
2024-01-18T22:24:58.752Z,18.65
2024-01-18T22:28:02.621Z,21.00
2024-01-18T22:31:05.156Z,19.45
2024-01-18T22:34:07.552Z,20.77
2024-01-18T22:37:11.305Z,21.88
2024-01-18T22:40:14.191Z,19.63
2024-01-18T22:43:16.438Z,20.83
2024-01-18T22:46:18.757Z,20.52
2024-01-18T22:49:21.106Z,20.13
2024-01-18T22:52:24.828Z,19.83
2024-01-18T22:55:27.080Z,20.05
2024-01-18T22:58:31.518Z,19.67
2024-01-18T23:01:33.813Z,19.67
2024-01-18T23:04:36.218Z,19.60
2024-01-18T23:07:39.895Z,19.35
2024-01-18T23:10:42.197Z,20.52
2024-01-18T23:13:44.602Z,19.13
2024-01-18T23:16:46.863Z,18.40
2024-01-18T23:19:49.325Z,19.98
2024-01-18T23:22:53.021Z,20.92
2024-01-18T23:25:58.682Z,20.58
2024-01-18T23:29:01.106Z,22.35
2024-01-18T23:32:03.503Z,21.75
2024-01-18T23:35:06.505Z,20.20
2024-01-18T23:38:10.122Z,20.50
2024-01-18T23:41:12.685Z,21.27
2024-01-18T23:44:15.219Z,23.85
2024-01-18T23:47:17.492Z,23.25
2024-01-18T23:50:19.897Z,23.92
2024-01-18T23:53:29.382Z,25.15
2024-01-18T23:56:33.336Z,23.48
2024-01-18T23:59:35.820Z,24.50
